Aviation Digital Data Service (ADDS)

Output produced by METARs form (2011 UTC 20 August 2019)
found at http://www.aviationweather.gov/metar/data/
 
METAR text: VTPM 201100Z 26008KT 9999 VCSH BKN020 BKN080 27/25 Q1005 TEMPO 6000 -RA
Conditions at: VTPM (MAE SOT/TAK , TH) observed 1100 UTC 20 August 2019
Temperature: 27.0°C (81°F)
Dewpoint: 25.0°C (77°F) [RH = 89%]
Pressure (altimeter): 29.68 inches Hg (1005.0 mb)
Winds: from the W (260 degrees) at 9 MPH (8 knots; 4.1 m/s)
Visibility: 6 or more miles (10+ km)
Ceiling: 2000 feet AGL
Clouds: broken clouds at 2000 feet AGL
broken clouds at 8000 feet AGL
Weather: VCSH  (showers in vicinity)

METAR text: VTPM 201000Z 25012KT 9999 VCSH BKN020 BKN080 28/25 Q1005 TEMPO 6000 -RA
Conditions at: VTPM (MAE SOT/TAK , TH) observed 1000 UTC 20 August 2019
Temperature: 28.0°C (82°F)
Dewpoint: 25.0°C (77°F) [RH = 84%]
Pressure (altimeter): 29.68 inches Hg (1005.0 mb)
Winds: from the WSW (250 degrees) at 14 MPH (12 knots; 6.2 m/s)
Visibility: 6 or more miles (10+ km)
Ceiling: 2000 feet AGL
Clouds: broken clouds at 2000 feet AGL
broken clouds at 8000 feet AGL
Weather: VCSH  (showers in vicinity)

METAR text: VTPM 200900Z 25010KT 9999 FEW020 BKN080 29/25 Q1005 NOSIG
Conditions at: VTPM (MAE SOT/TAK , TH) observed 0900 UTC 20 August 2019
Temperature: 29.0°C (84°F)
Dewpoint: 25.0°C (77°F) [RH = 79%]
Pressure (altimeter): 29.68 inches Hg (1005.0 mb)
Winds: from the WSW (250 degrees) at 12 MPH (10 knots; 5.1 m/s)
Visibility: 6 or more miles (10+ km)
Ceiling: 8000 feet AGL
Clouds: few clouds at 2000 feet AGL
broken clouds at 8000 feet AGL
Weather: no significant weather observed at this time

METAR text: VTPM 200800Z 24009KT 220V280 9999 SCT020 BKN080 30/25 Q1005 NOSIG
Conditions at: VTPM (MAE SOT/TAK , TH) observed 0800 UTC 20 August 2019
Temperature: 30.0°C (86°F)
Dewpoint: 25.0°C (77°F) [RH = 75%]
Pressure (altimeter): 29.68 inches Hg (1005.0 mb)
Winds: from the WSW (240 degrees) at 10 MPH (9 knots; 4.6 m/s)
Visibility: 6 or more miles (10+ km)
Ceiling: 8000 feet AGL
Clouds: scattered clouds at 2000 feet AGL
broken clouds at 8000 feet AGL
Weather: no significant weather observed at this time

METAR text: VTPM 200700Z 24005KT 210V280 9999 SCT020 BKN080 30/24 Q1006 NOSIG
Conditions at: VTPM (MAE SOT/TAK , TH) observed 0700 UTC 20 August 2019
Temperature: 30.0°C (86°F)
Dewpoint: 24.0°C (75°F) [RH = 70%]
Pressure (altimeter): 29.70 inches Hg (1006.0 mb)
Winds: from the WSW (240 degrees) at 6 MPH (5 knots; 2.6 m/s)
Visibility: 6 or more miles (10+ km)
Ceiling: 8000 feet AGL
Clouds: scattered clouds at 2000 feet AGL
broken clouds at 8000 feet AGL
Weather: no significant weather observed at this time

METAR text: VTPM 200600Z 24010KT 9999 BKN020 BKN080 28/24 Q1007 NOSIG
Conditions at: VTPM (MAE SOT/TAK , TH) observed 0600 UTC 20 August 2019
Temperature: 28.0°C (82°F)
Dewpoint: 24.0°C (75°F) [RH = 79%]
Pressure (altimeter): 29.73 inches Hg (1007.0 mb)
Winds: from the WSW (240 degrees) at 12 MPH (10 knots; 5.1 m/s)
Visibility: 6 or more miles (10+ km)
Ceiling: 2000 feet AGL
Clouds: broken clouds at 2000 feet AGL
broken clouds at 8000 feet AGL
Weather: no significant weather observed at this time

METAR text: VTPM 200500Z 23006KT 200V270 9999 BKN020 BKN080 29/24 Q1008 NOSIG
Conditions at: VTPM (MAE SOT/TAK , TH) observed 0500 UTC 20 August 2019
Temperature: 29.0°C (84°F)
Dewpoint: 24.0°C (75°F) [RH = 74%]
Pressure (altimeter): 29.76 inches Hg (1008.0 mb)
Winds: from the SW (230 degrees) at 7 MPH (6 knots; 3.1 m/s)
Visibility: 6 or more miles (10+ km)
Ceiling: 2000 feet AGL
Clouds: broken clouds at 2000 feet AGL
broken clouds at 8000 feet AGL
Weather: no significant weather observed at this time

METAR text: VTPM 200400Z 26007KT 9999 BKN018 BKN080 29/24 Q1008 NOSIG
Conditions at: VTPM (MAE SOT/TAK , TH) observed 0400 UTC 20 August 2019
Temperature: 29.0°C (84°F)
Dewpoint: 24.0°C (75°F) [RH = 74%]
Pressure (altimeter): 29.76 inches Hg (1008.0 mb)
Winds: from the W (260 degrees) at 8 MPH (7 knots; 3.6 m/s)
Visibility: 6 or more miles (10+ km)
Ceiling: 1800 feet AGL
Clouds: broken clouds at 1800 feet AGL
broken clouds at 8000 feet AGL
Weather: no significant weather observed at this time

METAR text: VTPM 200300Z 23005KT 180V270 9999 BKN020 BKN080 28/24 Q1009 NOSIG
Conditions at: VTPM (MAE SOT/TAK , TH) observed 0300 UTC 20 August 2019
Temperature: 28.0°C (82°F)
Dewpoint: 24.0°C (75°F) [RH = 79%]
Pressure (altimeter): 29.79 inches Hg (1009.0 mb)
Winds: from the SW (230 degrees) at 6 MPH (5 knots; 2.6 m/s)
Visibility: 6 or more miles (10+ km)
Ceiling: 2000 feet AGL
Clouds: broken clouds at 2000 feet AGL
broken clouds at 8000 feet AGL
Weather: no significant weather observed at this time

METAR text: VTPM 200200Z 19003KT 9999 FEW010 BKN020 BKN080 27/25 Q1009 NOSIG
Conditions at: VTPM (MAE SOT/TAK , TH) observed 0200 UTC 20 August 2019
Temperature: 27.0°C (81°F)
Dewpoint: 25.0°C (77°F) [RH = 89%]
Pressure (altimeter): 29.79 inches Hg (1009.0 mb)
Winds: from the S (190 degrees) at 3 MPH (3 knots; 1.5 m/s)
Visibility: 6 or more miles (10+ km)
Ceiling: 2000 feet AGL
Clouds: few clouds at 1000 feet AGL
broken clouds at 2000 feet AGL
broken clouds at 8000 feet AGL
Weather: no significant weather observed at this time

METAR text: VTPM 200100Z VRB01KT 9999 FEW020 BKN080 27/25 Q1008 NOSIG
Conditions at: VTPM (MAE SOT/TAK , TH) observed 0100 UTC 20 August 2019
Temperature: 27.0°C (81°F)
Dewpoint: 25.0°C (77°F) [RH = 89%]
Pressure (altimeter): 29.76 inches Hg (1008.0 mb)
Winds: variable direction winds at 1 MPH (1 knots; 0.5 m/s)
Visibility: 6 or more miles (10+ km)
Ceiling: 8000 feet AGL
Clouds: few clouds at 2000 feet AGL
broken clouds at 8000 feet AGL
Weather: no significant weather observed at this time

METAR text: VTPM 200000Z VRB02KT 9999 FEW020 BKN080 25/24 Q1008 NOSIG
Conditions at: VTPM (MAE SOT/TAK , TH) observed 0000 UTC 20 August 2019
Temperature: 25.0°C (77°F)
Dewpoint: 24.0°C (75°F) [RH = 94%]
Pressure (altimeter): 29.76 inches Hg (1008.0 mb)
Winds: variable direction winds at 2 MPH (2 knots; 1.0 m/s)
Visibility: 6 or more miles (10+ km)
Ceiling: 8000 feet AGL
Clouds: few clouds at 2000 feet AGL
broken clouds at 8000 feet AGL
Weather: no significant weather observed at this time

METAR text: VTPM 192300Z VRB01KT 9999 SCT020 BKN080 25/24 Q1007 NOSIG
Conditions at: VTPM (MAE SOT/TAK , TH) observed 2300 UTC 19 August 2019
Temperature: 25.0°C (77°F)
Dewpoint: 24.0°C (75°F) [RH = 94%]
Pressure (altimeter): 29.73 inches Hg (1007.0 mb)
Winds: variable direction winds at 1 MPH (1 knots; 0.5 m/s)
Visibility: 6 or more miles (10+ km)
Ceiling: 8000 feet AGL
Clouds: scattered clouds at 2000 feet AGL
broken clouds at 8000 feet AGL
Weather: no significant weather observed at this time

METAR text: VTPM 191100Z 23009KT 9999 SCT020 BKN080 28/25 Q1008 NOSIG
Conditions at: VTPM (MAE SOT/TAK , TH) observed 1100 UTC 19 August 2019
Temperature: 28.0°C (82°F)
Dewpoint: 25.0°C (77°F) [RH = 84%]
Pressure (altimeter): 29.76 inches Hg (1008.0 mb)
Winds: from the SW (230 degrees) at 10 MPH (9 knots; 4.6 m/s)
Visibility: 6 or more miles (10+ km)
Ceiling: 8000 feet AGL
Clouds: scattered clouds at 2000 feet AGL
broken clouds at 8000 feet AGL
Weather: no significant weather observed at this time

METAR text: VTPM 191000Z 23009KT 9999 BKN020 BKN080 29/25 Q1008 NOSIG
Conditions at: VTPM (MAE SOT/TAK , TH) observed 1000 UTC 19 August 2019
Temperature: 29.0°C (84°F)
Dewpoint: 25.0°C (77°F) [RH = 79%]
Pressure (altimeter): 29.76 inches Hg (1008.0 mb)
Winds: from the SW (230 degrees) at 10 MPH (9 knots; 4.6 m/s)
Visibility: 6 or more miles (10+ km)
Ceiling: 2000 feet AGL
Clouds: broken clouds at 2000 feet AGL
broken clouds at 8000 feet AGL
Weather: no significant weather observed at this time

METAR text: VTPM 190900Z 23010KT 9999 SCT020 BKN080 29/25 Q1007 NOSIG
Conditions at: VTPM (MAE SOT/TAK , TH) observed 0900 UTC 19 August 2019
Temperature: 29.0°C (84°F)
Dewpoint: 25.0°C (77°F) [RH = 79%]
Pressure (altimeter): 29.73 inches Hg (1007.0 mb)
Winds: from the SW (230 degrees) at 12 MPH (10 knots; 5.1 m/s)
Visibility: 6 or more miles (10+ km)
Ceiling: 8000 feet AGL
Clouds: scattered clouds at 2000 feet AGL
broken clouds at 8000 feet AGL
Weather: no significant weather observed at this time

Forecast for: VTPM (MAE SOT/TAK , TH)
Text: TAF VTPM 201700Z 2018/2118 24005KT 9999 BKN025
Forecast period: 1800 UTC 20 August 2019 to 1800 UTC 21 August 2019
Forecast type: FROM: standard forecast or significant change
Winds: from the WSW (240 degrees) at 6 MPH (5 knots; 2.6 m/s)
Visibility: 6 or more miles 10+ km)
Ceiling: 2500 feet AGL
Clouds: broken clouds at 2500 feet AGL
Weather: no significant weather forecast for this period
Text: TEMPO 2108/2113 VRB15G30KT 4000 TSRA FEW018CB BKN035
Forecast period: 0800 to 1300 UTC 21 August 2019
Forecast type: TEMPORARY: The following changes expected for less than half the time period
Winds: variable direction winds at 17 MPH (15 knots; 7.7 m/s)
gusting to 34 MPH (30 knots; 15.4 m/s)
Visibility: 2.49 miles (4.01 km)
Ceiling: 3500 feet AGL
Clouds: few clouds at 1800 feet AGL
broken clouds at 3500 feet AGL
Weather: TSRA  (rain associated with thunderstorm(s))